Berlin — 9HA2295 — position and weather

sailwx.info

Track history (hours):
 
Tides and Currents Weather Stations Pressure Air Temp Water Temp Dewpoint Dewpoint Depression Visibility Wind Speed Wind Dir Waves Ship Positions

Berlin

Last reported at 2015-Apr-15 01:22 UTC. Time now 2015-Apr-18 11:37 UTC.
Position N 42°07' E 018°37'.

Length 140 m; draft 5 m.

Type: Passenger vessel. MMSI: 248277000.

Date/timePositionNaut miles runAvg speedWind from/ knotsBaromVisibWave heightAir tempDewpointWater temp
2015-Apr-15 01:22N 42°07' E 018°37'6 7.7
2015-Apr-15 00:33N 42°01' E 018°40'8 7.8
2015-Apr-14 23:33N 41°54' E 018°42'97 9.7
2015-Apr-14 13:33N 40°19' E 019°12'1413.9
2015-Apr-14 12:33N 40°05' E 019°16'27 8.9
2015-Apr-14 09:33N 39°40' E 019°26'10 9.4
2015-Apr-14 08:32N 39°31' E 019°32'1110.7
2015-Apr-14 07:33N 39°21' E 019°37'10 9.7
2015-Apr-14 06:31N 39°12' E 019°42'78 9.5
2015-Apr-13 22:20N 38°03' E 020°29'  
2015-Apr-10 16:33N 37°34' E 023°41'1312.7
2015-Apr-10 15:33N 37°46' E 023°38'10 9.7
2015-Apr-10 14:31N 37°56' E 023°38'0 0.0
2015-Apr-10 13:28N 37°56' E 023°38'0 0.0
2015-Apr-10 12:31N 37°56' E 023°38'0 0.0
2015-Apr-10 11:28N 37°56' E 023°38'0 0.0
2015-Apr-10 10:28N 37°56' E 023°38'0 0.0
2015-Apr-10 09:31N 37°56' E 023°38'0 0.0
2015-Apr-10 08:28N 37°56' E 023°38'0 0.0
2015-Apr-10 07:31N 37°56' E 023°38'0 0.0
2015-Apr-10 06:28N 37°56' E 023°38'0 0.0
2015-Apr-10 05:28N 37°56' E 023°38'0 0.0
2015-Apr-10 04:31N 37°56' E 023°38'0 0.0
2015-Apr-10 03:25N 37°56' E 023°38'0 0.0
2015-Apr-10 02:31N 37°56' E 023°38'0 0.0
2015-Apr-10 01:31N 37°56' E 023°38'0 0.0
2015-Apr-10 00:31N 37°56' E 023°38'0 0.0
2015-Apr-09 23:28N 37°56' E 023°38'0 0.0
2015-Apr-09 22:31N 37°56' E 023°38'0 0.0
2015-Apr-09 21:31N 37°56' E 023°38'0 0.0
2015-Apr-09 20:31N 37°56' E 023°38'0 0.0
2015-Apr-09 19:31N 37°56' E 023°38'0 0.0
2015-Apr-09 18:31N 37°56' E 023°38'0 0.0
2015-Apr-09 17:28N 37°56' E 023°38'0 0.0
2015-Apr-09 16:31N 37°56' E 023°38'0 0.0
2015-Apr-09 15:31N 37°56' E 023°38'0 0.0
2015-Apr-09 14:31N 37°56' E 023°38'0 0.0
2015-Apr-09 13:30N 37°56' E 023°38'0 0.0
2015-Apr-09 12:33N 37°56' E 023°38'0 0.0
2015-Apr-09 11:30N 37°56' E 023°38'0 0.0
2015-Apr-09 10:33N 37°56' E 023°38'0 0.0
2015-Apr-09 09:33N 37°56' E 023°38'0 0.0
2015-Apr-09 08:33N 37°56' E 023°38'0 0.0
2015-Apr-09 07:33N 37°56' E 023°38'0 0.0
2015-Apr-09 06:33N 37°56' E 023°38'0 0.0
2015-Apr-09 05:33N 37°56' E 023°38'0 0.0
2015-Apr-09 04:30N 37°56' E 023°38'0 0.0
2015-Apr-09 03:33N 37°56' E 023°38'0 0.0
2015-Apr-09 02:33N 37°56' E 023°38'0 0.0
2015-Apr-09 01:33N 37°56' E 023°38'0 0.0
2015-Apr-09 00:33N 37°56' E 023°38'0 0.0
2015-Apr-08 23:33N 37°56' E 023°38'0 0.0
2015-Apr-08 22:33N 37°56' E 023°38'0 0.0
2015-Apr-08 21:27N 37°56' E 023°38'1 0.8
2015-Apr-08 20:33N 37°56' E 023°37'9 8.9
2015-Apr-08 19:33N 37°50' E 023°29'1110.2
2015-Apr-08 18:28N 37°52' E 023°15'1010.5
2015-Apr-08 17:32N 37°54' E 023°03'20 6.4
2015-Apr-08 14:25N 38°06' E 022°43'141 5.9
2015-Apr-07 14:33N 39°22' E 020°11'1211.7
2015-Apr-07 13:33N 39°32' E 020°03'9 8.7
2015-Apr-07 12:33N 39°38' E 019°54'0 0.0
2015-Apr-07 11:27N 39°38' E 019°54'0 0.0
2015-Apr-07 10:33N 39°38' E 019°54'0 0.0
2015-Apr-07 09:33N 39°38' E 019°54'0 0.0
2015-Apr-07 08:33N 39°38' E 019°54'0 0.0
2015-Apr-07 07:27N 39°38' E 019°54'0 0.0
2015-Apr-07 06:33N 39°38' E 019°54'2 2.5
2015-Apr-07 05:34N 39°39' E 019°57'1211.8
2015-Apr-07 04:33N 39°51' E 019°55'1313.5
2015-Apr-07 03:33N 39°60' E 019°42'1413.5
2015-Apr-07 02:33N 40°09' E 019°29'10412.9
2015-Apr-06 18:29N 41°49' E 018°51'1213.4
2015-Apr-06 17:34N 41°59' E 018°42'1313.3
2015-Apr-06 16:33N 42°10' E 018°31'1313.4
2015-Apr-06 15:33N 42°21' E 018°21'1313.1
2015-Apr-06 14:33N 42°31' E 018°10'12 1.1
2015-Apr-06 03:32N 42°37' E 017°55'  
Track history (hours):
 
Tides and Currents Weather Stations Pressure Air Temp Water Temp Dewpoint Dewpoint Depression Visibility Wind Speed Wind Dir Waves Ship Positions

Berlin

Last reported at 2015-Apr-15 01:22 UTC. Time now 2015-Apr-18 11:37 UTC.
Position N 42°07' E 018°37'.

Length 140 m; draft 5 m.

Type: Passenger vessel. MMSI: 248277000.

Date/timePositionNaut miles runAvg speedWind from/ knotsBaromVisibWave heightAir tempDewpointWater temp
2015-Apr-15 01:22N 42°07' E 018°37'6 7.7
2015-Apr-15 00:33N 42°01' E 018°40'8 7.8
2015-Apr-14 23:33N 41°54' E 018°42'97 9.7
2015-Apr-14 13:33N 40°19' E 019°12'1413.9
2015-Apr-14 12:33N 40°05' E 019°16'27 8.9
2015-Apr-14 09:33N 39°40' E 019°26'10 9.4
2015-Apr-14 08:32N 39°31' E 019°32'1110.7
2015-Apr-14 07:33N 39°21' E 019°37'10 9.7
2015-Apr-14 06:31N 39°12' E 019°42'78 9.5
2015-Apr-13 22:20N 38°03' E 020°29'  
2015-Apr-10 16:33N 37°34' E 023°41'1312.7
2015-Apr-10 15:33N 37°46' E 023°38'10 9.7
2015-Apr-10 14:31N 37°56' E 023°38'0 0.0
2015-Apr-10 13:28N 37°56' E 023°38'0 0.0
2015-Apr-10 12:31N 37°56' E 023°38'0 0.0
2015-Apr-10 11:28N 37°56' E 023°38'0 0.0
2015-Apr-10 10:28N 37°56' E 023°38'0 0.0
2015-Apr-10 09:31N 37°56' E 023°38'0 0.0
2015-Apr-10 08:28N 37°56' E 023°38'0 0.0
2015-Apr-10 07:31N 37°56' E 023°38'0 0.0
2015-Apr-10 06:28N 37°56' E 023°38'0 0.0
2015-Apr-10 05:28N 37°56' E 023°38'0 0.0
2015-Apr-10 04:31N 37°56' E 023°38'0 0.0
2015-Apr-10 03:25N 37°56' E 023°38'0 0.0
2015-Apr-10 02:31N 37°56' E 023°38'0 0.0
2015-Apr-10 01:31N 37°56' E 023°38'0 0.0
2015-Apr-10 00:31N 37°56' E 023°38'0 0.0
2015-Apr-09 23:28N 37°56' E 023°38'0 0.0
2015-Apr-09 22:31N 37°56' E 023°38'0 0.0
2015-Apr-09 21:31N 37°56' E 023°38'0 0.0
2015-Apr-09 20:31N 37°56' E 023°38'0 0.0
2015-Apr-09 19:31N 37°56' E 023°38'0 0.0
2015-Apr-09 18:31N 37°56' E 023°38'0 0.0
2015-Apr-09 17:28N 37°56' E 023°38'0 0.0
2015-Apr-09 16:31N 37°56' E 023°38'0 0.0
2015-Apr-09 15:31N 37°56' E 023°38'0 0.0
2015-Apr-09 14:31N 37°56' E 023°38'0 0.0
2015-Apr-09 13:30N 37°56' E 023°38'0 0.0
2015-Apr-09 12:33N 37°56' E 023°38'0 0.0
2015-Apr-09 11:30N 37°56' E 023°38'0 0.0
2015-Apr-09 10:33N 37°56' E 023°38'0 0.0
2015-Apr-09 09:33N 37°56' E 023°38'0 0.0
2015-Apr-09 08:33N 37°56' E 023°38'0 0.0
2015-Apr-09 07:33N 37°56' E 023°38'0 0.0
2015-Apr-09 06:33N 37°56' E 023°38'0 0.0
2015-Apr-09 05:33N 37°56' E 023°38'0 0.0
2015-Apr-09 04:30N 37°56' E 023°38'0 0.0
2015-Apr-09 03:33N 37°56' E 023°38'0 0.0
2015-Apr-09 02:33N 37°56' E 023°38'0 0.0
2015-Apr-09 01:33N 37°56' E 023°38'0 0.0
2015-Apr-09 00:33N 37°56' E 023°38'0 0.0
2015-Apr-08 23:33N 37°56' E 023°38'0 0.0
2015-Apr-08 22:33N 37°56' E 023°38'0 0.0
2015-Apr-08 21:27N 37°56' E 023°38'1 0.8
2015-Apr-08 20:33N 37°56' E 023°37'9 8.9
2015-Apr-08 19:33N 37°50' E 023°29'1110.2
2015-Apr-08 18:28N 37°52' E 023°15'1010.5
2015-Apr-08 17:32N 37°54' E 023°03'20 6.4
2015-Apr-08 14:25N 38°06' E 022°43'141 5.9
2015-Apr-07 14:33N 39°22' E 020°11'1211.7
2015-Apr-07 13:33N 39°32' E 020°03'9 8.7
2015-Apr-07 12:33N 39°38' E 019°54'0 0.0
2015-Apr-07 11:27N 39°38' E 019°54'0 0.0
2015-Apr-07 10:33N 39°38' E 019°54'0 0.0
2015-Apr-07 09:33N 39°38' E 019°54'0 0.0
2015-Apr-07 08:33N 39°38' E 019°54'0 0.0
2015-Apr-07 07:27N 39°38' E 019°54'0 0.0
2015-Apr-07 06:33N 39°38' E 019°54'2 2.5
2015-Apr-07 05:34N 39°39' E 019°57'1211.8
2015-Apr-07 04:33N 39°51' E 019°55'1313.5
2015-Apr-07 03:33N 39°60' E 019°42'1413.5
2015-Apr-07 02:33N 40°09' E 019°29'10412.9
2015-Apr-06 18:29N 41°49' E 018°51'1213.4
2015-Apr-06 17:34N 41°59' E 018°42'1313.3
2015-Apr-06 16:33N 42°10' E 018°31'1313.4
2015-Apr-06 15:33N 42°21' E 018°21'1313.1
2015-Apr-06 14:33N 42°31' E 018°10'12 1.1
2015-Apr-06 03:32N 42°37' E 017°55'  

Dump ship's entire track history